Alpine Meadows, California
Current Conditions -  °F | °C
As of 3:55 AM on Thursday 23 Oct 2014 (Local Time) from KTRK Reporting Station
Clear Clear  
Wind Chill: -1°   Ceiling: Unl
Heat Index:   Visibility: 10mi
Dew Point: -1°   Wind: 5mph
Humidity: 87%   Direction: 360°N
Pressure: 30.14"   Gusts: NA
Location:  39.16°N, 120.24°W
Report Text: KTRK 231055Z AUTO 36004KT 10SM CLR 01/M01 A3014 RMK AO2
Loading
Personal Weather Stations






























Interactive Weather Map
Tropical Storm Tracking
New forecast layout! Learn more

10-Day Weather Forecast

Advertisements
Track Severe Weather on mobile